Time;durP1;ratioP1;P1;durP2;ratioP2;P2;SDS_P1;SDS_P2;PMS_P1;PMS_P2;Temp;Humidity;BMP_temperature;BMP_pressure;BME280_temperature;BME280_humidity;BME280_pressure;Samples;Min_cycle;Max_cycle;Signal;HPM_P1;HPM_P2
2021/12/17 00:00:26;;;;;;;27.60;20.33;;;;;;;;;;4929668;29;20414;-96
2021/12/17 00:05:51;;;;;;;24.27;19.25;;;;;;;;;;4930234;29;20393;-96
2021/12/17 00:08:20;;;;;;;27.43;20.30;;;;;;;;;;4932015;29;20827;-96
2021/12/17 00:10:49;;;;;;;26.52;20.50;;;;;;;;;;4931561;29;20422;-96
2021/12/17 00:13:19;;;;;;;25.75;19.15;;;;;;;;;;4931370;29;20429;-96
2021/12/17 00:15:46;;;;;;;26.02;19.38;;;;;;;;;;4930864;29;20429;-96
2021/12/17 00:18:21;;;;;;;26.08;18.95;;;;;;;;;;4930786;29;20725;-96
2021/12/17 00:40:28;;;;;;;20.88;16.10;;;;;;;;;;4954670;28;20406;-95
2021/12/17 00:48:36;;;;;;;28.25;16.88;;;;;;;;;;4930516;29;20404;-96
2021/12/17 00:51:53;;;;;;;20.70;15.50;;;;;;;;;;4931525;29;20422;-95
2021/12/17 00:54:31;;;;;;;16.60;13.90;;;;;;;;;;4931326;29;20485;-96
2021/12/17 00:57:00;;;;;;;18.73;13.80;;;;;;;;;;4930873;29;20901;-96
2021/12/17 00:59:28;;;;;;;17.20;13.27;;;;;;;;;;4933747;29;20418;-96
2021/12/17 01:02:00;;;;;;;18.35;13.70;;;;;;;;;;4930342;29;20432;-96
2021/12/17 01:04:27;;;;;;;17.67;13.43;;;;;;;;;;4933105;29;20433;-96
2021/12/17 01:06:54;;;;;;;17.33;13.65;;;;;;;;;;4932468;29;20432;-96
2021/12/17 01:09:25;;;;;;;19.00;14.75;;;;;;;;;;4932639;29;20421;-96
2021/12/17 01:11:53;;;;;;;19.38;15.25;;;;;;;;;;4932423;29;20712;-96
2021/12/17 01:14:20;;;;;;;20.52;15.43;;;;;;;;;;4932711;29;20418;-96
2021/12/17 01:16:50;;;;;;;21.83;16.60;;;;;;;;;;4932715;29;20529;-96
2021/12/17 01:19:26;;;;;;;22.65;17.08;;;;;;;;;;4932455;29;20422;-96
2021/12/17 01:22:14;;;;;;;21.55;16.08;;;;;;;;;;4932775;29;20425;-96
2021/12/17 01:24:47;;;;;;;20.63;14.55;;;;;;;;;;4930347;29;20782;-96
2021/12/17 01:35:30;;;;;;;19.75;14.75;;;;;;;;;;4930782;29;20449;-96
2021/12/17 01:43:30;;;;;;;19.33;15.20;;;;;;;;;;4930132;29;21022;-96
2021/12/17 01:45:58;;;;;;;20.70;14.88;;;;;;;;;;4931565;29;20930;-96
2021/12/17 01:48:33;;;;;;;20.75;15.10;;;;;;;;;;4930656;29;20447;-96
2021/12/17 01:56:52;;;;;;;18.65;14.63;;;;;;;;;;4938166;29;20429;-96
2021/12/17 01:59:24;;;;;;;19.83;15.00;;;;;;;;;;4935682;29;20445;-96
2021/12/17 02:01:54;;;;;;;18.63;14.13;;;;;;;;;;4938541;29;20541;-96
2021/12/17 02:04:22;;;;;;;18.73;14.93;;;;;;;;;;4938930;29;20779;-96
2021/12/17 02:06:50;;;;;;;19.40;14.55;;;;;;;;;;4938620;29;20517;-96
2021/12/17 02:21:04;;;;;;;19.65;14.45;;;;;;;;;;4939181;29;21022;-96
2021/12/17 02:29:24;;;;;;;20.23;15.70;;;;;;;;;;4937527;29;20818;-96
2021/12/17 02:31:55;;;;;;;19.52;15.55;;;;;;;;;;4936402;29;20438;-96
2021/12/17 02:34:36;;;;;;;21.42;16.00;;;;;;;;;;4938453;29;20428;-96
2021/12/17 02:37:13;;;;;;;19.38;15.13;;;;;;;;;;4938678;29;20425;-96
2021/12/17 02:40:00;;;;;;;23.38;16.35;;;;;;;;;;4938052;29;20429;-96
2021/12/17 02:45:31;;;;;;;19.42;15.57;;;;;;;;;;4936787;29;20429;-96
2021/12/17 02:45:33;;;;;;;19.60;15.43;;;;;;;;;;4939229;29;20501;-96
2021/12/17 02:48:03;;;;;;;20.17;15.48;;;;;;;;;;4935176;29;20430;-96
2021/12/17 02:50:31;;;;;;;19.50;14.90;;;;;;;;;;4938425;29;20414;-96
2021/12/17 02:53:02;;;;;;;19.48;15.18;;;;;;;;;;4938691;29;20917;-96
2021/12/17 02:55:30;;;;;;;19.30;14.80;;;;;;;;;;4937269;29;20429;-96
2021/12/17 02:57:58;;;;;;;19.08;15.10;;;;;;;;;;4935951;28;20430;-96
2021/12/17 03:00:26;;;;;;;20.70;15.38;;;;;;;;;;4934682;28;20665;-95
2021/12/17 03:02:56;;;;;;;20.13;15.30;;;;;;;;;;4931052;29;20410;-96
2021/12/17 03:05:26;;;;;;;22.08;16.63;;;;;;;;;;4926566;29;20420;-96
2021/12/17 03:07:53;;;;;;;22.02;16.10;;;;;;;;;;4928736;29;20587;-96
2021/12/17 03:10:24;;;;;;;23.08;16.13;;;;;;;;;;4928402;29;20434;-96
2021/12/17 03:13:00;;;;;;;21.47;16.27;;;;;;;;;;4930826;29;20898;-96
2021/12/17 03:15:35;;;;;;;25.00;16.63;;;;;;;;;;4936436;29;20490;-96
2021/12/17 03:23:39;;;;;;;23.00;16.88;;;;;;;;;;4932188;29;20417;-96
2021/12/17 03:26:12;;;;;;;22.85;16.50;;;;;;;;;;4935188;29;20429;-96
2021/12/17 03:28:42;;;;;;;20.58;16.27;;;;;;;;;;4924441;29;20410;-96
2021/12/17 03:31:11;;;;;;;24.38;16.90;;;;;;;;;;4953152;28;20394;-96
2021/12/17 03:33:42;;;;;;;22.02;15.63;;;;;;;;;;4946142;28;20512;-96
2021/12/17 03:36:14;;;;;;;21.60;16.23;;;;;;;;;;4950109;28;20544;-96
2021/12/17 03:38:43;;;;;;;20.10;15.70;;;;;;;;;;4927361;29;20428;-96
2021/12/17 03:41:19;;;;;;;21.67;16.08;;;;;;;;;;4926454;29;20424;-96
2021/12/17 03:43:48;;;;;;;19.85;15.45;;;;;;;;;;4926316;29;20679;-96
2021/12/17 03:46:16;;;;;;;20.67;15.43;;;;;;;;;;4929442;29;20414;-96
2021/12/17 03:48:44;;;;;;;20.35;15.93;;;;;;;;;;4929680;29;20533;-96
2021/12/17 03:51:14;;;;;;;20.10;15.80;;;;;;;;;;4922942;29;20427;-96
2021/12/17 03:53:43;;;;;;;20.80;15.90;;;;;;;;;;4929394;29;20426;-96
2021/12/17 03:56:12;;;;;;;19.83;15.57;;;;;;;;;;4930225;29;20428;-96
2021/12/17 03:58:39;;;;;;;21.90;15.20;;;;;;;;;;4947022;28;20401;-96
2021/12/17 04:01:07;;;;;;;19.48;15.40;;;;;;;;;;4952152;28;20414;-95
2021/12/17 04:03:34;;;;;;;19.08;15.05;;;;;;;;;;4946347;28;20405;-96
2021/12/17 04:06:02;;;;;;;19.75;15.18;;;;;;;;;;4948013;28;20425;-96
2021/12/17 04:08:29;;;;;;;19.38;15.10;;;;;;;;;;4947835;28;20410;-96
2021/12/17 04:11:03;;;;;;;20.90;15.80;;;;;;;;;;4950729;28;20485;-96
2021/12/17 04:13:35;;;;;;;20.45;14.82;;;;;;;;;;4951605;28;20414;-96
2021/12/17 04:16:06;;;;;;;19.55;15.15;;;;;;;;;;4935110;29;20422;-96
2021/12/17 04:18:41;;;;;;;21.45;15.20;;;;;;;;;;4932114;29;20519;-96
2021/12/17 04:21:13;;;;;;;19.65;15.25;;;;;;;;;;4929223;29;20456;-96
2021/12/17 04:23:42;;;;;;;19.77;15.40;;;;;;;;;;4929159;29;20428;-96
2021/12/17 04:26:10;;;;;;;20.42;15.57;;;;;;;;;;4930166;29;20419;-96
2021/12/17 04:28:44;;;;;;;23.50;15.90;;;;;;;;;;4926267;29;20496;-96
2021/12/17 04:31:13;;;;;;;22.42;15.68;;;;;;;;;;4928854;29;20457;-96
2021/12/17 04:33:44;;;;;;;20.75;15.88;;;;;;;;;;4921280;29;20753;-96
2021/12/17 04:36:14;;;;;;;22.98;15.73;;;;;;;;;;4928975;29;20432;-96
2021/12/17 04:38:42;;;;;;;20.80;16.67;;;;;;;;;;4923636;29;20440;-96
2021/12/17 04:44:05;;;;;;;23.17;17.75;;;;;;;;;;4904752;29;20418;-96
2021/12/17 04:46:38;;;;;;;22.35;16.08;;;;;;;;;;4931346;29;20830;-96
2021/12/17 04:57:32;;;;;;;22.13;15.77;;;;;;;;;;4927336;29;20429;-96
2021/12/17 05:00:07;;;;;;;20.50;16.23;;;;;;;;;;4926575;29;20456;-96
2021/12/17 05:02:42;;;;;;;20.08;16.20;;;;;;;;;;4926303;29;20414;-96
2021/12/17 05:05:11;;;;;;;23.00;17.08;;;;;;;;;;4929009;29;20425;-96
2021/12/17 05:07:43;;;;;;;25.75;18.17;;;;;;;;;;4931946;29;20473;-96
2021/12/17 05:10:20;;;;;;;27.33;18.00;;;;;;;;;;4929623;29;20433;-96
2021/12/17 05:18:23;;;;;;;25.23;18.00;;;;;;;;;;4933084;29;20512;-96
2021/12/17 05:20:54;;;;;;;23.35;17.58;;;;;;;;;;4934917;29;20792;-96
2021/12/17 05:23:29;;;;;;;23.80;17.60;;;;;;;;;;4932859;29;20422;-96
2021/12/17 05:25:58;;;;;;;23.30;17.13;;;;;;;;;;4930406;29;20422;-96
2021/12/17 05:28:27;;;;;;;25.42;17.73;;;;;;;;;;4931965;29;20481;-96
2021/12/17 05:30:56;;;;;;;23.02;17.05;;;;;;;;;;4931187;29;20448;-96
2021/12/17 05:33:26;;;;;;;27.05;19.15;;;;;;;;;;4932492;29;20544;-96
2021/12/17 05:35:54;;;;;;;25.52;17.63;;;;;;;;;;4929191;29;20414;-96
2021/12/17 05:38:23;;;;;;;23.92;17.65;;;;;;;;;;4935490;28;20425;-96
2021/12/17 05:40:51;;;;;;;23.30;17.30;;;;;;;;;;4930410;29;20424;-95
2021/12/17 05:43:18;;;;;;;24.10;17.27;;;;;;;;;;4929950;29;20428;-95
2021/12/17 05:46:03;;;;;;;23.77;17.00;;;;;;;;;;4930484;29;20424;-95
2021/12/17 05:48:32;;;;;;;23.17;17.40;;;;;;;;;;4930056;29;20430;-95
2021/12/17 05:51:01;;;;;;;23.48;17.35;;;;;;;;;;4932767;29;20414;-96
2021/12/17 05:53:30;;;;;;;23.88;17.67;;;;;;;;;;4931515;29;20424;-96
2021/12/17 05:55:58;;;;;;;22.88;17.65;;;;;;;;;;4909764;29;20437;-96
2021/12/17 05:58:27;;;;;;;22.92;17.65;;;;;;;;;;4932367;29;20902;-96
2021/12/17 06:00:55;;;;;;;23.17;17.95;;;;;;;;;;4931477;29;20422;-96
2021/12/17 06:03:27;;;;;;;22.50;17.88;;;;;;;;;;4930101;29;20414;-96
2021/12/17 06:05:56;;;;;;;22.53;17.60;;;;;;;;;;4929038;29;20511;-96
2021/12/17 06:08:28;;;;;;;22.00;16.75;;;;;;;;;;4936403;29;20431;-96
2021/12/17 06:10:56;;;;;;;22.65;17.33;;;;;;;;;;4933153;29;20432;-96
2021/12/17 06:13:23;;;;;;;25.42;18.55;;;;;;;;;;4933241;29;20825;-95
2021/12/17 06:15:52;;;;;;;23.83;17.35;;;;;;;;;;4930077;29;20425;-96
2021/12/17 06:18:19;;;;;;;22.77;17.48;;;;;;;;;;4928716;29;20417;-96
2021/12/17 06:20:46;;;;;;;23.08;17.98;;;;;;;;;;4933071;29;20429;-96
2021/12/17 06:23:15;;;;;;;22.27;17.33;;;;;;;;;;4937380;28;20477;-95
2021/12/17 06:25:42;;;;;;;23.00;17.45;;;;;;;;;;4950435;28;20437;-96
2021/12/17 06:28:11;;;;;;;22.40;17.25;;;;;;;;;;4950818;28;20438;-95
2021/12/17 06:30:38;;;;;;;22.80;17.65;;;;;;;;;;4944041;28;20480;-96
2021/12/17 06:33:05;;;;;;;24.30;17.30;;;;;;;;;;4923995;29;20436;-95
2021/12/17 06:35:32;;;;;;;24.30;17.60;;;;;;;;;;4912002;29;20430;-96
2021/12/17 06:44:09;;;;;;;31.05;22.10;;;;;;;;;;5623297;23;20395;-96
2021/12/17 06:55:11;;;;;;;27.10;19.38;;;;;;;;;;4792892;26;20433;-96
2021/12/17 07:00:41;;;;;;;27.23;19.58;;;;;;;;;;4950101;29;20452;-96
2021/12/17 07:17:13;;;;;;;30.40;20.38;;;;;;;;;;4954109;29;20425;-96
2021/12/17 07:22:51;;;;;;;27.70;21.10;;;;;;;;;;4953998;29;20390;-96
2021/12/17 07:28:10;;;;;;;29.67;20.48;;;;;;;;;;4929921;29;20412;-96
2021/12/17 07:33:38;;;;;;;31.05;21.67;;;;;;;;;;4953320;29;20413;-96
2021/12/17 07:36:11;;;;;;;33.17;24.05;;;;;;;;;;4955263;29;20416;-96
2021/12/17 07:38:42;;;;;;;34.78;25.05;;;;;;;;;;4940648;29;20467;-96
2021/12/17 07:41:11;;;;;;;31.08;22.83;;;;;;;;;;4956932;29;20449;-96
2021/12/17 09:07:16;;;;;;;43.97;32.20;;;;;;;;;;4931028;29;20512;-93
2021/12/17 09:09:45;;;;;;;48.33;32.80;;;;;;;;;;4928223;29;20445;-93
2021/12/17 09:12:12;;;;;;;47.10;33.10;;;;;;;;;;4932727;29;20441;-91
2021/12/17 09:14:39;;;;;;;48.53;34.00;;;;;;;;;;4932393;29;20428;-94
2021/12/17 09:17:07;;;;;;;46.25;34.13;;;;;;;;;;4932647;29;20422;-93
2021/12/17 09:19:34;;;;;;;51.53;34.67;;;;;;;;;;4933037;29;20418;-93
2021/12/17 09:22:02;;;;;;;51.03;35.42;;;;;;;;;;4926871;29;20436;-92
2021/12/17 09:24:30;;;;;;;46.72;34.72;;;;;;;;;;4947697;29;20402;-93
2021/12/17 09:26:58;;;;;;;51.30;35.53;;;;;;;;;;4948644;28;20394;-93
2021/12/17 09:29:25;;;;;;;50.90;35.77;;;;;;;;;;4951143;28;20422;-93
2021/12/17 09:31:52;;;;;;;45.60;32.95;;;;;;;;;;4919824;29;20427;-93
2021/12/17 09:34:19;;;;;;;41.10;30.08;;;;;;;;;;4927932;29;20418;-93
2021/12/17 09:36:45;;;;;;;40.35;28.92;;;;;;;;;;4915804;29;20427;-94
2021/12/17 09:39:12;;;;;;;43.97;30.60;;;;;;;;;;4929268;29;21182;-94
2021/12/17 09:41:46;;;;;;;47.97;32.58;;;;;;;;;;4914328;29;20465;-93
2021/12/17 09:44:14;;;;;;;43.72;30.75;;;;;;;;;;4930666;29;21186;-94
2021/12/17 09:46:43;;;;;;;39.17;29.13;;;;;;;;;;4930957;29;20465;-91
2021/12/17 09:49:11;;;;;;;42.77;30.13;;;;;;;;;;4928779;29;20870;-93
2021/12/17 09:51:39;;;;;;;41.33;29.02;;;;;;;;;;4928463;29;20418;-93
2021/12/17 09:54:07;;;;;;;37.47;28.65;;;;;;;;;;4897028;29;20402;-93
2021/12/17 09:56:34;;;;;;;42.97;31.00;;;;;;;;;;4930333;29;20815;-94
2021/12/17 09:59:03;;;;;;;43.93;31.93;;;;;;;;;;4922772;29;20769;-92
2021/12/17 10:01:30;;;;;;;43.60;31.38;;;;;;;;;;4911668;29;20968;-93
2021/12/17 10:04:15;;;;;;;42.50;31.90;;;;;;;;;;4911583;29;20762;-93
2021/12/17 10:06:42;;;;;;;38.72;28.85;;;;;;;;;;4910829;29;20943;-93
2021/12/17 10:09:09;;;;;;;39.50;29.83;;;;;;;;;;4917348;29;21331;-93
2021/12/17 10:11:36;;;;;;;41.07;31.50;;;;;;;;;;4933513;29;20506;-93
2021/12/17 10:14:18;;;;;;;44.38;31.58;;;;;;;;;;4935226;29;20434;-93
2021/12/17 10:16:46;;;;;;;40.15;31.17;;;;;;;;;;4918523;29;20402;-92
2021/12/17 10:19:13;;;;;;;44.50;33.28;;;;;;;;;;4918048;29;20484;-92
2021/12/17 10:21:46;;;;;;;43.78;33.28;;;;;;;;;;4934401;29;20421;-92
2021/12/17 10:24:23;;;;;;;46.00;34.30;;;;;;;;;;4935218;29;20769;-93
2021/12/17 10:26:50;;;;;;;47.78;34.35;;;;;;;;;;4927516;29;20442;-93
2021/12/17 10:29:22;;;;;;;44.50;33.85;;;;;;;;;;4933021;29;20465;-93
2021/12/17 10:31:57;;;;;;;48.63;34.35;;;;;;;;;;4934270;29;20452;-92
2021/12/17 10:34:25;;;;;;;48.23;35.17;;;;;;;;;;4933456;29;20902;-90
2021/12/17 10:36:53;;;;;;;48.63;35.88;;;;;;;;;;4923734;29;20472;-93
2021/12/17 10:39:24;;;;;;;67.30;46.05;;;;;;;;;;4934552;29;20405;-93
2021/12/17 10:41:52;;;;;;;51.72;37.70;;;;;;;;;;4919047;29;20423;-93
2021/12/17 10:44:22;;;;;;;50.25;37.67;;;;;;;;;;4929561;29;20422;-93
2021/12/17 10:47:13;;;;;;;46.65;35.92;;;;;;;;;;4934327;29;20909;-93
2021/12/17 10:49:52;;;;;;;52.05;37.28;;;;;;;;;;4933648;29;20418;-93
2021/12/17 10:52:27;;;;;;;46.78;35.22;;;;;;;;;;4928890;29;20414;-93
2021/12/17 10:55:08;;;;;;;49.20;36.97;;;;;;;;;;4913765;29;20425;-93
2021/12/17 10:57:35;;;;;;;52.15;38.67;;;;;;;;;;4928090;29;20468;-93
2021/12/17 11:00:06;;;;;;;60.38;44.33;;;;;;;;;;4925684;29;20427;-94
2021/12/17 11:02:33;;;;;;;53.72;41.05;;;;;;;;;;4930083;29;20460;-93
2021/12/17 11:05:11;;;;;;;55.20;41.60;;;;;;;;;;4929836;29;20529;-93
2021/12/17 11:07:39;;;;;;;53.90;41.78;;;;;;;;;;4931158;29;20409;-93
2021/12/17 11:10:07;;;;;;;53.88;40.17;;;;;;;;;;4925969;29;20413;-93
2021/12/17 11:12:36;;;;;;;55.78;41.53;;;;;;;;;;4931202;29;20957;-93
2021/12/17 11:15:17;;;;;;;50.80;39.53;;;;;;;;;;4927867;29;20837;-93
2021/12/17 11:17:45;;;;;;;53.47;41.38;;;;;;;;;;4931827;29;20490;-93
2021/12/17 11:20:14;;;;;;;54.67;41.17;;;;;;;;;;4899412;29;20717;-93
2021/12/17 11:22:43;;;;;;;53.55;41.28;;;;;;;;;;4931250;29;20402;-94
2021/12/17 11:25:10;;;;;;;54.67;42.40;;;;;;;;;;4932470;29;20449;-93
2021/12/17 11:27:38;;;;;;;54.00;41.97;;;;;;;;;;4919901;29;20459;-93
2021/12/17 11:30:07;;;;;;;53.20;40.97;;;;;;;;;;4933292;29;20480;-93
2021/12/17 11:32:36;;;;;;;52.90;40.58;;;;;;;;;;4923826;29;20450;-93
2021/12/17 11:35:05;;;;;;;51.17;40.47;;;;;;;;;;4920053;29;20585;-93
2021/12/17 11:37:32;;;;;;;53.60;41.10;;;;;;;;;;4932965;29;20421;-93
2021/12/17 11:40:06;;;;;;;54.37;41.23;;;;;;;;;;4931826;29;20501;-93
2021/12/17 11:43:03;;;;;;;53.38;41.15;;;;;;;;;;4931926;29;20418;-93
2021/12/17 11:45:30;;;;;;;49.17;39.33;;;;;;;;;;4923514;29;20438;-93
2021/12/17 11:48:16;;;;;;;54.55;40.70;;;;;;;;;;4931263;29;20441;-92
2021/12/17 11:50:43;;;;;;;54.47;40.45;;;;;;;;;;4928629;29;20424;-93
2021/12/17 11:53:22;;;;;;;47.35;38.10;;;;;;;;;;4924131;29;20422;-94
2021/12/17 11:55:57;;;;;;;51.38;40.30;;;;;;;;;;4927956;29;20430;-94
2021/12/17 11:58:45;;;;;;;50.85;39.47;;;;;;;;;;4933791;29;20449;-94
2021/12/17 12:01:12;;;;;;;49.97;38.38;;;;;;;;;;4914510;29;20959;-93
2021/12/17 12:03:41;;;;;;;49.78;38.38;;;;;;;;;;4932197;29;20424;-93
2021/12/17 12:06:34;;;;;;;50.05;38.22;;;;;;;;;;4920031;28;20477;-94
2021/12/17 12:09:05;;;;;;;48.92;38.30;;;;;;;;;;4931257;29;20434;-93
2021/12/17 12:11:32;;;;;;;48.13;37.92;;;;;;;;;;4931787;28;20884;-93
2021/12/17 12:14:34;;;;;;;51.42;38.15;;;;;;;;;;4925370;29;20483;-96
2021/12/17 12:17:03;;;;;;;44.72;36.42;;;;;;;;;;4946011;28;20421;-96
2021/12/17 12:56:53;;;;;;;43.97;34.45;;;;;;;;;;6109081;23;20388;-96
2021/12/17 13:01:55;;;;;;;42.67;32.47;;;;;;;;;;6181919;23;20404;-96
2021/12/17 13:04:23;;;;;;;42.50;32.43;;;;;;;;;;6160518;23;20390;-95
2021/12/17 13:06:52;;;;;;;42.75;33.33;;;;;;;;;;6181620;23;20437;-96
2021/12/17 13:09:29;;;;;;;44.55;34.63;;;;;;;;;;6186229;23;20444;-96
2021/12/17 13:11:59;;;;;;;45.58;34.97;;;;;;;;;;6174667;23;20395;-96
2021/12/17 13:14:33;;;;;;;48.00;37.10;;;;;;;;;;6180432;23;20351;-96
2021/12/17 13:20:41;;;;;;;49.53;37.47;;;;;;;;;;6179441;23;20369;-96
2021/12/17 14:20:25;;;;;;;45.08;36.70;;;;;;;;;;6135074;23;20481;-96
2021/12/17 14:22:55;;;;;;;46.00;37.72;;;;;;;;;;6129830;23;20880;-96
2021/12/17 14:25:32;;;;;;;45.72;37.53;;;;;;;;;;6126968;23;20855;-96
2021/12/17 14:28:01;;;;;;;44.75;36.65;;;;;;;;;;6125813;23;20410;-95
2021/12/17 14:30:33;;;;;;;47.08;37.22;;;;;;;;;;6126147;23;20385;-96
2021/12/17 14:33:06;;;;;;;46.50;37.15;;;;;;;;;;6126920;23;20440;-96
2021/12/17 14:35:43;;;;;;;47.17;37.97;;;;;;;;;;6129930;23;20403;-95
2021/12/17 14:38:10;;;;;;;47.90;37.83;;;;;;;;;;6130282;23;20485;-96
2021/12/17 14:40:43;;;;;;;48.67;38.17;;;;;;;;;;6126871;23;20379;-96
2021/12/17 14:43:24;;;;;;;49.30;37.83;;;;;;;;;;6126252;23;20908;-96
2021/12/17 14:46:08;;;;;;;52.25;38.83;;;;;;;;;;6125403;23;20381;-94
2021/12/17 14:48:42;;;;;;;51.67;39.00;;;;;;;;;;6125585;23;20391;-96
2021/12/17 15:02:27;;;;;;;53.70;41.08;;;;;;;;;;6124736;23;20402;-96
2021/12/17 15:04:55;;;;;;;53.08;40.17;;;;;;;;;;6124171;23;20378;-96
2021/12/17 15:07:23;;;;;;;52.72;40.67;;;;;;;;;;6126046;23;20382;-96
2021/12/17 15:09:51;;;;;;;52.70;40.10;;;;;;;;;;6124683;23;20386;-95
2021/12/17 15:15:07;;;;;;;53.43;40.23;;;;;;;;;;6125132;23;20410;-96
2021/12/17 15:17:34;;;;;;;53.63;41.88;;;;;;;;;;6128003;23;20386;-96
2021/12/17 15:20:01;;;;;;;54.28;40.85;;;;;;;;;;6123312;23;20383;-96
2021/12/17 15:22:29;;;;;;;54.72;40.28;;;;;;;;;;6122056;23;20393;-94
2021/12/17 15:24:56;;;;;;;56.28;41.78;;;;;;;;;;6119347;23;20374;-95
2021/12/17 15:27:24;;;;;;;54.55;40.90;;;;;;;;;;6121524;23;20387;-95
2021/12/17 15:29:51;;;;;;;58.20;41.33;;;;;;;;;;6121420;23;20378;-94
2021/12/17 15:32:19;;;;;;;53.70;41.65;;;;;;;;;;6122704;23;20390;-96
2021/12/17 15:34:46;;;;;;;62.85;44.10;;;;;;;;;;6121450;23;20378;-95
2021/12/17 15:37:12;;;;;;;60.53;44.30;;;;;;;;;;6119425;23;20827;-92
2021/12/17 15:39:41;;;;;;;59.30;43.67;;;;;;;;;;6095288;23;20367;-93
2021/12/17 15:42:10;;;;;;;59.75;42.95;;;;;;;;;;6094563;23;20857;-92
2021/12/17 15:44:37;;;;;;;61.13;44.72;;;;;;;;;;6119647;23;20464;-92
2021/12/17 15:47:06;;;;;;;61.97;43.95;;;;;;;;;;6119363;23;20375;-93
2021/12/17 15:49:33;;;;;;;60.17;45.28;;;;;;;;;;6119579;23;20967;-92
2021/12/17 15:52:00;;;;;;;61.27;44.83;;;;;;;;;;6118390;23;20367;-93
2021/12/17 15:54:27;;;;;;;83.07;54.28;;;;;;;;;;6120051;23;21097;-92
2021/12/17 15:56:56;;;;;;;110.85;72.15;;;;;;;;;;6119814;23;20375;-92
2021/12/17 15:59:23;;;;;;;179.82;107.65;;;;;;;;;;6117257;23;20390;-94
2021/12/17 16:01:50;;;;;;;125.90;80.18;;;;;;;;;;6094819;23;20387;-92
2021/12/17 16:04:17;;;;;;;103.90;67.60;;;;;;;;;;6119902;23;20379;-93
2021/12/17 16:06:44;;;;;;;81.95;55.15;;;;;;;;;;6093740;23;20375;-92
2021/12/17 16:09:30;;;;;;;75.80;53.55;;;;;;;;;;6120076;23;20934;-92
2021/12/17 16:12:04;;;;;;;75.13;52.38;;;;;;;;;;6120302;23;20434;-93
2021/12/17 16:22:56;;;;;;;73.80;49.40;;;;;;;;;;6088652;23;20725;-92
2021/12/17 16:25:23;;;;;;;70.07;49.58;;;;;;;;;;6124887;23;20382;-91
2021/12/17 16:27:51;;;;;;;69.65;48.58;;;;;;;;;;6141121;23;20363;-91
2021/12/17 16:30:18;;;;;;;71.93;51.22;;;;;;;;;;6142254;23;20371;-91
2021/12/17 16:32:45;;;;;;;76.53;53.33;;;;;;;;;;6146090;23;20367;-94
2021/12/17 16:35:12;;;;;;;79.83;54.33;;;;;;;;;;6123048;23;20391;-93
2021/12/17 16:37:39;;;;;;;88.63;56.90;;;;;;;;;;6120584;23;21023;-91
2021/12/17 16:40:07;;;;;;;85.40;57.03;;;;;;;;;;6120356;23;20439;-94
2021/12/17 16:42:35;;;;;;;81.68;54.63;;;;;;;;;;6120198;23;20398;-94
2021/12/17 16:45:21;;;;;;;77.30;53.55;;;;;;;;;;6119994;23;20449;-94
2021/12/17 16:47:49;;;;;;;117.55;71.38;;;;;;;;;;6120880;23;20379;-92
2021/12/17 16:50:17;;;;;;;88.97;58.38;;;;;;;;;;6117987;23;20383;-92
2021/12/17 16:52:44;;;;;;;78.30;54.67;;;;;;;;;;6119952;23;20362;-91
2021/12/17 16:55:15;;;;;;;84.20;56.10;;;;;;;;;;6127370;23;20382;-95
2021/12/17 16:57:42;;;;;;;73.73;53.47;;;;;;;;;;6117563;23;20377;-95
2021/12/17 17:00:16;;;;;;;85.95;57.47;;;;;;;;;;6108420;23;20375;-93
2021/12/17 17:02:43;;;;;;;89.35;59.92;;;;;;;;;;6122005;23;20387;-93
2021/12/17 17:05:10;;;;;;;93.35;67.38;;;;;;;;;;6116777;23;20383;-92
2021/12/17 17:07:37;;;;;;;87.93;63.45;;;;;;;;;;6118420;23;20831;-92
2021/12/17 17:10:04;;;;;;;95.30;69.23;;;;;;;;;;6119586;23;20474;-93
2021/12/17 17:12:34;;;;;;;87.57;64.00;;;;;;;;;;6120533;23;20398;-90
2021/12/17 17:15:00;;;;;;;91.88;66.72;;;;;;;;;;6118916;23;20926;-92
2021/12/17 17:17:29;;;;;;;108.25;74.93;;;;;;;;;;6121139;23;20386;-92
2021/12/17 17:19:56;;;;;;;98.25;70.05;;;;;;;;;;6118838;23;20378;-91
2021/12/17 17:22:23;;;;;;;102.90;72.82;;;;;;;;;;6120261;23;20383;-91
2021/12/17 17:24:50;;;;;;;100.65;72.97;;;;;;;;;;6120183;23;20371;-89
2021/12/17 17:27:17;;;;;;;91.57;67.10;;;;;;;;;;6114848;23;20412;-90
2021/12/17 17:29:48;;;;;;;111.80;88.07;;;;;;;;;;6120339;23;20382;-92
2021/12/17 17:32:16;;;;;;;90.95;63.55;;;;;;;;;;6122339;23;20375;-95
2021/12/17 17:34:44;;;;;;;110.72;77.25;;;;;;;;;;6120366;23;20374;-96
2021/12/17 17:37:11;;;;;;;129.32;92.65;;;;;;;;;;6121678;23;20387;-95
2021/12/17 17:39:39;;;;;;;101.95;74.25;;;;;;;;;;6122814;23;20386;-95
2021/12/17 17:42:07;;;;;;;99.38;71.05;;;;;;;;;;6121554;23;20799;-95
2021/12/17 17:44:34;;;;;;;98.97;73.65;;;;;;;;;;6122547;23;20375;-95
2021/12/17 17:47:01;;;;;;;97.63;71.65;;;;;;;;;;6121077;23;20378;-96
2021/12/17 17:49:33;;;;;;;113.05;77.70;;;;;;;;;;6120419;23;20843;-93
2021/12/17 17:52:06;;;;;;;124.65;82.63;;;;;;;;;;6121461;23;20371;-96
2021/12/17 17:54:40;;;;;;;107.68;74.90;;;;;;;;;;6121184;23;20863;-94
2021/12/17 17:57:12;;;;;;;108.33;71.90;;;;;;;;;;6120599;23;20479;-93
2021/12/17 17:59:48;;;;;;;92.53;66.32;;;;;;;;;;6120468;23;20450;-94
2021/12/17 18:02:19;;;;;;;105.43;69.88;;;;;;;;;;6121103;23;20716;-94
2021/12/17 18:04:51;;;;;;;101.63;70.85;;;;;;;;;;6094063;23;20401;-93
2021/12/17 18:07:25;;;;;;;102.38;70.88;;;;;;;;;;6120850;23;20371;-94
2021/12/17 18:09:57;;;;;;;96.20;67.20;;;;;;;;;;6119768;23;20445;-92
2021/12/17 18:12:29;;;;;;;101.97;69.88;;;;;;;;;;6120418;23;20374;-94
2021/12/17 18:15:01;;;;;;;97.60;68.82;;;;;;;;;;6117741;23;20386;-95
2021/12/17 18:17:34;;;;;;;104.03;69.10;;;;;;;;;;6119443;23;20852;-95
2021/12/17 18:20:06;;;;;;;106.60;71.35;;;;;;;;;;6116944;23;20418;-92
2021/12/17 18:22:35;;;;;;;108.43;72.85;;;;;;;;;;6120889;23;20487;-94
2021/12/17 18:25:02;;;;;;;106.43;71.82;;;;;;;;;;6095299;23;20375;-95
2021/12/17 18:27:29;;;;;;;109.50;73.57;;;;;;;;;;6120907;23;20383;-94
2021/12/17 18:29:56;;;;;;;113.75;76.38;;;;;;;;;;6119124;23;20379;-93
2021/12/17 18:32:28;;;;;;;112.25;76.38;;;;;;;;;;6123290;23;20382;-96
2021/12/17 18:34:55;;;;;;;122.93;81.18;;;;;;;;;;6122147;23;20371;-93
2021/12/17 18:37:22;;;;;;;119.60;81.38;;;;;;;;;;6123041;23;20371;-96
2021/12/17 18:39:51;;;;;;;130.02;85.97;;;;;;;;;;6122067;23;20697;-91
2021/12/17 18:45:02;;;;;;;113.72;77.47;;;;;;;;;;6121464;23;20930;-94
2021/12/17 18:47:29;;;;;;;121.80;78.97;;;;;;;;;;6121215;23;20371;-89
2021/12/17 18:49:56;;;;;;;119.05;78.55;;;;;;;;;;6119459;23;20386;-89
2021/12/17 18:52:23;;;;;;;116.47;77.27;;;;;;;;;;6121659;23;20693;-88
2021/12/17 18:54:51;;;;;;;130.88;85.30;;;;;;;;;;6121276;23;20401;-89
2021/12/17 18:57:19;;;;;;;167.73;94.38;;;;;;;;;;6121011;23;20375;-89
2021/12/17 18:59:46;;;;;;;125.97;80.32;;;;;;;;;;6119064;23;20725;-89
2021/12/17 19:02:13;;;;;;;130.80;84.38;;;;;;;;;;6120044;23;20398;-89
2021/12/17 19:04:39;;;;;;;117.38;77.15;;;;;;;;;;6119393;23;20382;-88
2021/12/17 19:07:06;;;;;;;123.30;76.25;;;;;;;;;;6120179;23;20386;-89
2021/12/17 19:09:33;;;;;;;153.85;93.88;;;;;;;;;;6120704;23;20375;-89
2021/12/17 19:12:03;;;;;;;129.52;81.78;;;;;;;;;;6119628;23;20852;-90
2021/12/17 19:14:32;;;;;;;107.57;70.28;;;;;;;;;;6119818;23;20371;-89
2021/12/17 19:16:59;;;;;;;156.25;92.47;;;;;;;;;;6120006;23;20882;-90
2021/12/17 19:19:28;;;;;;;117.22;76.75;;;;;;;;;;6118476;23;20393;-89
2021/12/17 19:22:15;;;;;;;167.63;91.77;;;;;;;;;;6119331;23;22343;-88
2021/12/17 19:24:42;;;;;;;168.33;92.57;;;;;;;;;;6122513;23;20382;-88
2021/12/17 19:27:11;;;;;;;145.80;80.70;;;;;;;;;;6127634;23;20379;-88
2021/12/17 19:29:39;;;;;;;111.65;70.90;;;;;;;;;;6134701;23;20367;-87
2021/12/17 19:32:06;;;;;;;90.47;60.67;;;;;;;;;;6134614;23;20840;-90
2021/12/17 19:34:34;;;;;;;94.50;63.58;;;;;;;;;;6117546;23;20370;-88
2021/12/17 19:37:08;;;;;;;113.18;71.60;;;;;;;;;;6115190;23;20802;-92
2021/12/17 19:39:37;;;;;;;278.70;136.67;;;;;;;;;;6118543;23;20410;-92
2021/12/17 19:42:07;;;;;;;181.15;99.70;;;;;;;;;;6116926;23;20394;-94
2021/12/17 19:44:36;;;;;;;200.37;110.20;;;;;;;;;;6117933;23;20390;-93
2021/12/17 19:47:19;;;;;;;194.80;104.05;;;;;;;;;;6118442;23;20379;-95
2021/12/17 19:49:46;;;;;;;153.80;89.03;;;;;;;;;;6119620;23;20744;-94
2021/12/17 19:52:16;;;;;;;151.82;88.93;;;;;;;;;;6118333;23;20694;-94
2021/12/17 19:54:45;;;;;;;127.65;79.53;;;;;;;;;;6118966;23;20386;-94
2021/12/17 19:57:12;;;;;;;121.25;75.78;;;;;;;;;;6119331;23;20383;-93
2021/12/17 19:59:41;;;;;;;105.47;70.45;;;;;;;;;;6119773;23;20390;-93
2021/12/17 20:02:08;;;;;;;119.60;74.28;;;;;;;;;;6118940;23;20375;-93
2021/12/17 20:04:39;;;;;;;115.13;74.27;;;;;;;;;;6119608;23;20441;-92
2021/12/17 20:07:06;;;;;;;125.35;78.85;;;;;;;;;;6118709;23;20379;-93
2021/12/17 20:09:33;;;;;;;118.80;75.63;;;;;;;;;;6120196;23;20761;-93